Time;durP1;ratioP1;P1;durP2;ratioP2;P2;SDS_P1;SDS_P2;PMS_P1;PMS_P2;Temp;Humidity;BMP_temperature;BMP_pressure;BME280_temperature;BME280_humidity;BME280_pressure;Samples;Min_cycle;Max_cycle;Signal;HPM_P1;HPM_P2
2022/04/12 00:01:06;;;;;;;0.10;0.10;;;;;;;;;;5006272;28;20654;-68
2022/04/12 00:03:33;;;;;;;0.10;0.10;;;;;;;;;;5017713;28;20669;-69
2022/04/12 00:06:00;;;;;;;0.10;0.10;;;;;;;;;;5007971;28;20687;-69
2022/04/12 00:08:27;;;;;;;0.20;0.20;;;;;;;;;;5012748;28;20757;-69
2022/04/12 00:10:55;;;;;;;0.10;0.10;;;;;;;;;;5020210;28;20618;-68
2022/04/12 00:13:23;;;;;;;0.10;0.10;;;;;;;;;;5002945;28;20730;-69
2022/04/12 00:15:51;;;;;;;0.20;0.20;;;;;;;;;;5021000;28;21190;-69
2022/04/12 00:21:04;;;;;;;0.10;0.10;;;5.30;99.90;;;;;;5010066;28;20802;-71
2022/04/12 00:23:31;;;;;;;0.17;0.17;;;5.00;99.90;;;;;;5009019;28;20636;-69
2022/04/12 00:25:58;;;;;;;0.10;0.10;;;5.00;99.90;;;;;;5012309;28;20646;-69
2022/04/12 00:28:26;;;;;;;0.20;0.20;;;;;;;;;;5007461;28;20635;-71
2022/04/12 00:30:55;;;;;;;0.10;0.10;;;;;;;;;;5024106;28;20627;-69
2022/04/12 00:33:23;;;;;;;0.20;0.20;;;;;;;;;;5015053;28;20622;-70
2022/04/12 00:35:50;;;;;;;0.10;0.10;;;;;;;;;;5023011;28;20762;-69
2022/04/12 00:38:22;;;;;;;0.10;0.10;;;;;;;;;;5007162;28;20618;-69
2022/04/12 00:40:50;;;;;;;0.20;0.20;;;;;;;;;;5009317;28;20737;-69
2022/04/12 00:43:17;;;;;;;0.20;0.20;;;;;;;;;;5011290;28;20630;-69
2022/04/12 00:45:45;;;;;;;0.20;0.20;;;;;;;;;;5009792;28;20951;-70
2022/04/12 00:48:14;;;;;;;0.10;0.10;;;;;;;;;;5016397;28;20708;-69
2022/04/12 00:50:42;;;;;;;0.20;0.20;;;;;;;;;;5011900;28;20677;-69
2022/04/12 00:53:10;;;;;;;0.20;0.20;;;;;;;;;;5015142;28;20607;-69
2022/04/12 00:55:37;;;;;;;0.20;0.20;;;;;;;;;;5009684;28;20639;-69
2022/04/12 00:58:07;;;;;;;0.10;0.10;;;;;;;;;;5019325;28;20639;-69
2022/04/12 01:00:35;;;;;;;0.20;0.20;;;;;;;;;;5009537;28;21112;-69
2022/04/12 01:03:02;;;;;;;0.10;0.10;;;;;;;;;;5014556;28;20615;-71
2022/04/12 01:05:31;;;;;;;0.13;0.13;;;;;;;;;;5004644;28;20664;-70
2022/04/12 01:07:58;;;;;;;0.10;0.10;;;;;;;;;;5014014;28;20610;-68
2022/04/12 01:10:25;;;;;;;0.10;0.10;;;;;;;;;;5011422;28;20632;-70
2022/04/12 01:12:53;;;;;;;0.10;0.10;;;;;;;;;;5006982;28;20651;-69
2022/04/12 01:15:21;;;;;;;0.10;0.10;;;;;;;;;;5000147;28;20652;-69
2022/04/12 01:17:49;;;;;;;0.20;0.20;;;;;;;;;;5004010;28;20704;-69
2022/04/12 01:20:17;;;;;;;0.10;0.10;;;;;;;;;;5012070;28;20658;-69
2022/04/12 01:22:50;;;;;;;0.10;0.10;;;;;;;;;;5010580;28;21195;-69
2022/04/12 01:25:18;;;;;;;0.10;0.10;;;;;;;;;;5003725;28;20695;-70
2022/04/12 01:27:45;;;;;;;0.20;0.20;;;;;;;;;;5016740;28;20637;-69
2022/04/12 01:30:13;;;;;;;0.10;0.10;;;;;;;;;;5012583;28;20642;-69
2022/04/12 01:32:41;;;;;;;0.10;0.10;;;;;;;;;;5010477;28;20626;-69
2022/04/12 01:35:09;;;;;;;0.20;0.20;;;;;;;;;;5013560;28;20651;-70
2022/04/12 01:37:36;;;;;;;0.20;0.20;;;4.30;99.90;;;;;;5008242;28;21199;-69
2022/04/12 01:40:04;;;;;;;0.10;0.10;;;4.00;99.90;;;;;;5014632;28;20626;-69
2022/04/12 01:42:33;;;;;;;0.10;0.10;;;3.90;99.90;;;;;;5011821;28;20659;-69
2022/04/12 01:45:00;;;;;;;0.10;0.10;;;3.90;99.90;;;;;;5012820;28;20657;-69
2022/04/12 01:47:27;;;;;;;0.10;0.10;;;3.90;99.90;;;;;;5006006;28;20644;-71
2022/04/12 01:49:54;;;;;;;0.20;0.20;;;3.90;99.90;;;;;;5008328;28;20647;-69
2022/04/12 01:52:22;;;;;;;0.10;0.10;;;3.90;99.90;;;;;;5007258;28;20718;-69
2022/04/12 01:54:48;;;;;;;0.10;0.10;;;3.90;99.90;;;;;;5012511;28;20746;-69
2022/04/12 01:57:15;;;;;;;0.17;0.17;;;3.90;99.90;;;;;;5005269;28;20677;-70
2022/04/12 01:59:44;;;;;;;0.10;0.10;;;3.90;99.90;;;;;;5014177;28;20630;-69
2022/04/12 02:02:11;;;;;;;0.20;0.20;;;3.90;99.90;;;;;;5005612;28;20743;-70
2022/04/12 02:04:38;;;;;;;0.10;0.10;;;3.80;99.90;;;;;;4999128;28;20738;-70
2022/04/12 02:07:05;;;;;;;0.20;0.20;;;3.80;99.90;;;;;;5005246;28;21262;-70
2022/04/12 02:09:32;;;;;;;0.10;0.10;;;3.70;99.90;;;;;;5011156;28;20636;-70
2022/04/12 02:11:59;;;;;;;0.20;0.20;;;3.70;99.90;;;;;;5007001;28;20702;-71
2022/04/12 02:14:26;;;;;;;0.20;0.20;;;3.70;99.90;;;;;;5015713;28;20727;-70
2022/04/12 02:16:54;;;;;;;0.10;0.10;;;;;;;;;;5004513;28;21141;-70
2022/04/12 02:19:21;;;;;;;0.20;0.20;;;3.70;99.90;;;;;;5008271;28;20612;-69
2022/04/12 02:21:48;;;;;;;0.20;0.20;;;3.60;99.90;;;;;;5002389;28;20659;-70
2022/04/12 02:24:15;;;;;;;0.10;0.10;;;3.60;99.90;;;;;;5009270;28;20658;-69
2022/04/12 02:26:42;;;;;;;0.20;0.20;;;3.50;99.90;;;;;;5009575;28;20675;-70
2022/04/12 02:29:12;;;;;;;0.10;0.10;;;3.50;99.90;;;;;;5012803;28;20666;-71
2022/04/12 02:31:39;;;;;;;0.10;0.10;;;3.50;99.90;;;;;;5010198;28;20608;-71
2022/04/12 02:34:07;;;;;;;0.20;0.20;;;3.50;99.90;;;;;;5004856;28;20661;-70
2022/04/12 02:36:34;;;;;;;0.10;0.10;;;3.50;99.90;;;;;;5009053;28;20669;-69
2022/04/12 02:39:01;;;;;;;0.10;0.10;;;3.50;99.90;;;;;;5003953;28;20615;-70
2022/04/12 02:41:28;;;;;;;0.10;0.10;;;3.50;99.90;;;;;;5019182;28;20655;-70
2022/04/12 02:43:55;;;;;;;0.10;0.10;;;3.50;99.90;;;;;;5002572;28;20703;-70
2022/04/12 02:46:22;;;;;;;0.10;0.10;;;3.50;99.90;;;;;;5006981;28;20746;-70
2022/04/12 02:48:48;;;;;;;0.20;0.20;;;3.50;99.90;;;;;;5006812;28;20651;-70
2022/04/12 02:51:16;;;;;;;0.10;0.10;;;3.50;99.90;;;;;;5011690;28;20607;-69
2022/04/12 02:53:43;;;;;;;0.10;0.10;;;3.50;99.90;;;;;;5007280;28;20701;-68
2022/04/12 02:56:10;;;;;;;0.10;0.10;;;3.60;99.90;;;;;;5007483;28;20693;-71
2022/04/12 02:58:38;;;;;;;0.10;0.10;;;3.50;99.90;;;;;;5003370;28;20614;-69
2022/04/12 03:01:04;;;;;;;0.20;0.20;;;3.40;99.90;;;;;;5008941;28;20655;-70
2022/04/12 03:03:31;;;;;;;0.17;0.17;;;3.40;99.90;;;;;;5011270;28;20620;-69
2022/04/12 03:05:58;;;;;;;0.20;0.20;;;3.30;99.90;;;;;;5001787;28;20692;-71
2022/04/12 03:08:27;;;;;;;0.20;0.20;;;;;;;;;;5007047;28;20608;-69
2022/04/12 03:10:54;;;;;;;0.20;0.20;;;;;;;;;;5009843;28;20735;-70
2022/04/12 03:13:21;;;;;;;0.13;0.13;;;;;;;;;;5006843;28;20635;-69
2022/04/12 03:15:48;;;;;;;0.20;0.20;;;;;;;;;;5007522;28;20644;-69
2022/04/12 03:18:16;;;;;;;0.20;0.20;;;3.20;99.90;;;;;;5004502;28;20639;-70
2022/04/12 03:20:43;;;;;;;0.20;0.20;;;3.20;99.90;;;;;;5011284;28;20628;-70
2022/04/12 03:23:10;;;;;;;0.20;0.20;;;3.20;99.90;;;;;;5009322;28;20671;-69
2022/04/12 03:25:39;;;;;;;0.17;0.17;;;3.20;99.90;;;;;;4994798;28;20658;-71
2022/04/12 03:28:06;;;;;;;0.10;0.10;;;;;;;;;;5003771;28;20642;-69
2022/04/12 03:30:34;;;;;;;0.20;0.20;;;;;;;;;;5015143;28;20619;-70
2022/04/12 03:33:01;;;;;;;0.10;0.10;;;;;;;;;;5005186;28;20632;-68
2022/04/12 03:35:28;;;;;;;0.20;0.20;;;;;;;;;;5016493;28;20722;-70
2022/04/12 03:38:00;;;;;;;0.20;0.20;;;;;;;;;;5019239;28;20643;-70
2022/04/12 03:40:30;;;;;;;0.20;0.20;;;;;;;;;;5015688;28;20635;-69
2022/04/12 03:42:59;;;;;;;0.20;0.20;;;;;;;;;;5005138;28;20652;-69
2022/04/12 03:45:27;;;;;;;0.10;0.10;;;;;;;;;;5012629;28;20688;-69
2022/04/12 03:47:54;;;;;;;0.20;0.20;;;;;;;;;;5009481;28;20611;-69
2022/04/12 03:50:22;;;;;;;0.10;0.10;;;;;;;;;;5013400;28;20743;-69
2022/04/12 03:52:50;;;;;;;0.20;0.20;;;;;;;;;;5013112;28;20595;-70
2022/04/12 03:55:30;;;;;;;0.10;0.10;;;;;;;;;;5018335;28;20646;-70
2022/04/12 03:57:58;;;;;;;0.20;0.20;;;;;;;;;;5019826;28;20681;-69
2022/04/12 04:00:26;;;;;;;0.30;0.30;;;;;;;;;;5008212;28;21207;-69
2022/04/12 04:02:54;;;;;;;0.20;0.20;;;;;;;;;;5007130;28;21255;-71
2022/04/12 04:05:21;;;;;;;0.20;0.20;;;;;;;;;;5009099;28;20655;-70
2022/04/12 04:07:49;;;;;;;0.20;0.20;;;;;;;;;;5012469;28;20619;-70
2022/04/12 04:10:16;;;;;;;0.13;0.13;;;;;;;;;;5024906;28;20718;-70
2022/04/12 04:12:44;;;;;;;0.10;0.10;;;;;;;;;;5022700;28;20620;-71
2022/04/12 04:15:12;;;;;;;0.20;0.20;;;;;;;;;;5013860;28;21126;-70
2022/04/12 04:17:42;;;;;;;0.10;0.10;;;;;;;;;;5005455;28;20717;-71
2022/04/12 04:20:11;;;;;;;0.20;0.20;;;;;;;;;;5025708;28;20639;-70
2022/04/12 04:22:40;;;;;;;0.20;0.20;;;;;;;;;;5006943;28;20686;-71
2022/04/12 04:25:08;;;;;;;0.20;0.20;;;;;;;;;;5012625;28;20651;-71
2022/04/12 04:27:35;;;;;;;0.13;0.13;;;;;;;;;;5015814;28;20692;-71
2022/04/12 04:30:04;;;;;;;0.20;0.20;;;;;;;;;;5013706;28;20627;-71
2022/04/12 04:32:31;;;;;;;0.10;0.10;;;;;;;;;;5010000;28;20774;-71
2022/04/12 04:35:00;;;;;;;0.20;0.20;;;;;;;;;;5012639;28;20693;-71
2022/04/12 04:37:27;;;;;;;0.10;0.10;;;;;;;;;;5025308;28;21167;-70
2022/04/12 04:39:54;;;;;;;0.20;0.20;;;;;;;;;;5007988;28;20665;-71
2022/04/12 04:42:23;;;;;;;0.20;0.20;;;;;;;;;;5007720;28;20796;-69
2022/04/12 04:44:50;;;;;;;0.20;0.20;;;;;;;;;;5006903;28;20637;-70
2022/04/12 04:47:17;;;;;;;0.20;0.20;;;;;;;;;;5024675;28;20636;-70
2022/04/12 04:49:44;;;;;;;0.10;0.10;;;;;;;;;;5006694;28;20671;-70
2022/04/12 04:52:13;;;;;;;0.20;0.20;;;;;;;;;;5025933;28;20701;-70
2022/04/12 04:54:40;;;;;;;0.20;0.20;;;;;;;;;;5011667;28;21053;-70
2022/04/12 04:57:07;;;;;;;0.20;0.20;;;;;;;;;;5006913;28;20635;-70
2022/04/12 04:59:35;;;;;;;0.20;0.20;;;;;;;;;;5013531;28;20642;-70
2022/04/12 05:02:02;;;;;;;0.20;0.20;;;;;;;;;;5018808;28;20662;-72
2022/04/12 05:04:29;;;;;;;0.20;0.20;;;;;;;;;;5012636;28;20631;-68
2022/04/12 05:06:57;;;;;;;0.20;0.20;;;;;;;;;;5003558;28;20607;-68
2022/04/12 05:09:26;;;;;;;0.20;0.20;;;;;;;;;;5007481;28;20758;-69
2022/04/12 05:11:53;;;;;;;0.20;0.20;;;;;;;;;;5007690;28;20701;-69
2022/04/12 05:14:20;;;;;;;0.20;0.20;;;;;;;;;;5015244;28;20660;-68
2022/04/12 05:16:48;;;;;;;0.20;0.20;;;;;;;;;;5007370;28;20670;-69
2022/04/12 05:19:15;;;;;;;0.20;0.20;;;;;;;;;;5002016;28;20691;-69
2022/04/12 05:21:42;;;;;;;0.20;0.20;;;;;;;;;;5013960;28;20706;-68
2022/04/12 05:24:10;;;;;;;0.30;0.30;;;;;;;;;;5012073;28;20635;-69
2022/04/12 05:26:38;;;;;;;0.20;0.20;;;;;;;;;;5007274;28;20719;-69
2022/04/12 05:29:05;;;;;;;0.17;0.17;;;;;;;;;;5007374;28;20620;-69
2022/04/12 05:31:33;;;;;;;0.20;0.20;;;;;;;;;;5018247;28;21060;-68
2022/04/12 05:34:00;;;;;;;0.20;0.20;;;;;;;;;;5011335;28;20658;-69
2022/04/12 05:36:27;;;;;;;0.10;0.10;;;;;;;;;;5007077;28;20640;-68
2022/04/12 05:38:56;;;;;;;0.10;0.10;;;;;;;;;;5006507;28;20627;-68
2022/04/12 05:41:24;;;;;;;0.10;0.10;;;;;;;;;;5011695;28;20626;-68
2022/04/12 05:43:52;;;;;;;0.13;0.13;;;;;;;;;;5008979;28;20693;-68
2022/04/12 05:46:19;;;;;;;0.20;0.20;;;;;;;;;;5013036;28;20679;-68
2022/04/12 05:48:47;;;;;;;0.20;0.20;;;;;;;;;;5006945;28;20681;-68
2022/04/12 05:51:14;;;;;;;0.10;0.10;;;;;;;;;;5005734;28;20694;-69
2022/04/12 05:53:41;;;;;;;0.20;0.20;;;;;;;;;;5008132;28;20627;-69
2022/04/12 05:56:08;;;;;;;0.10;0.10;;;;;;;;;;5005514;28;20750;-68
2022/04/12 05:58:38;;;;;;;0.10;0.10;;;;;;;;;;5004812;28;20802;-70
2022/04/12 06:01:07;;;;;;;0.20;0.20;;;;;;;;;;5003877;28;20611;-68
2022/04/12 06:03:34;;;;;;;0.20;0.20;;;;;;;;;;5006687;28;20720;-68
2022/04/12 06:06:01;;;;;;;0.20;0.20;;;;;;;;;;4999948;28;20648;-68
2022/04/12 06:08:29;;;;;;;0.20;0.20;;;;;;;;;;5009188;28;20627;-69
2022/04/12 06:10:56;;;;;;;0.20;0.20;;;;;;;;;;5014668;28;20645;-68
2022/04/12 06:13:23;;;;;;;0.20;0.20;;;;;;;;;;5008134;28;20627;-69
2022/04/12 06:15:50;;;;;;;0.20;0.20;;;;;;;;;;5019254;28;20777;-68
2022/04/12 06:18:19;;;;;;;0.20;0.20;;;;;;;;;;5006442;28;20630;-69
2022/04/12 06:20:46;;;;;;;0.10;0.10;;;;;;;;;;5004361;28;20607;-68
2022/04/12 06:23:13;;;;;;;0.10;0.10;;;;;;;;;;5004682;28;20753;-69
2022/04/12 06:25:41;;;;;;;0.13;0.13;;;;;;;;;;5005257;28;20737;-69
2022/04/12 06:28:08;;;;;;;0.20;0.20;;;;;;;;;;4999893;28;20663;-71
2022/04/12 06:30:36;;;;;;;0.20;0.20;;;;;;;;;;5004775;28;20677;-69
2022/04/12 06:33:04;;;;;;;0.20;0.20;;;;;;;;;;5003904;28;20666;-68
2022/04/12 06:35:32;;;;;;;0.13;0.13;;;;;;;;;;5005388;28;20731;-68
2022/04/12 06:38:00;;;;;;;0.10;0.10;;;;;;;;;;5009279;28;20747;-68
2022/04/12 06:40:27;;;;;;;0.10;0.10;;;;;;;;;;5013395;28;20659;-69
2022/04/12 06:42:54;;;;;;;0.10;0.10;;;;;;;;;;5007335;28;20695;-68
2022/04/12 06:45:22;;;;;;;0.10;0.10;;;;;;;;;;5005834;28;20650;-68
2022/04/12 06:47:53;;;;;;;0.10;0.10;;;;;;;;;;5003461;28;21009;-69
2022/04/12 06:50:21;;;;;;;0.10;0.10;;;;;;;;;;5005646;28;21250;-69
2022/04/12 06:52:49;;;;;;;0.20;0.20;;;;;;;;;;5007853;28;20634;-69
2022/04/12 06:55:16;;;;;;;0.10;0.10;;;;;;;;;;5006900;28;20643;-68
2022/04/12 06:57:43;;;;;;;0.10;0.10;;;8.90;99.90;;;;;;5005929;28;20623;-68
2022/04/12 07:00:11;;;;;;;0.20;0.20;;;8.90;99.90;;;;;;5005950;28;20637;-67
2022/04/12 07:02:39;;;;;;;0.10;0.10;;;;;;;;;;5020915;28;20647;-67
2022/04/12 07:05:07;;;;;;;0.20;0.20;;;;;;;;;;5013394;28;20701;-68
2022/04/12 07:07:36;;;;;;;0.10;0.10;;;;;;;;;;5001735;28;20627;-68
2022/04/12 07:10:05;;;;;;;0.10;0.10;;;;;;;;;;5007488;28;20619;-68
2022/04/12 07:12:33;;;;;;;0.10;0.10;;;;;;;;;;5004758;28;20612;-68
2022/04/12 07:15:00;;;;;;;0.10;0.10;;;;;;;;;;5010950;28;20721;-68
2022/04/12 07:17:28;;;;;;;0.10;0.10;;;;;;;;;;4989826;28;20624;-69
2022/04/12 07:19:55;;;;;;;0.10;0.10;;;;;;;;;;5004026;28;20631;-69
2022/04/12 07:22:22;;;;;;;0.20;0.20;;;;;;;;;;5001704;28;20607;-68
2022/04/12 07:24:50;;;;;;;0.20;0.20;;;;;;;;;;4998596;28;20655;-69
2022/04/12 07:27:18;;;;;;;0.10;0.10;;;;;;;;;;4995068;28;20661;-69
2022/04/12 07:29:46;;;;;;;0.13;0.13;;;;;;;;;;5010204;28;20650;-69
2022/04/12 07:32:13;;;;;;;0.10;0.10;;;;;;;;;;5005412;28;20638;-69
2022/04/12 07:34:40;;;;;;;0.10;0.10;;;;;;;;;;5004848;28;20678;-69
2022/04/12 07:37:08;;;;;;;0.10;0.10;;;;;;;;;;5004911;28;20667;-69
2022/04/12 07:39:35;;;;;;;0.10;0.10;;;;;;;;;;5005934;28;20628;-69
2022/04/12 07:42:03;;;;;;;0.10;0.10;;;;;;;;;;5005177;28;20681;-69
2022/04/12 07:44:33;;;;;;;0.10;0.10;;;;;;;;;;4999204;28;20648;-70
2022/04/12 07:47:01;;;;;;;0.10;0.10;;;;;;;;;;4999545;28;20677;-70
2022/04/12 07:49:28;;;;;;;0.10;0.10;;;;;;;;;;5003407;28;20237;-68
2022/04/12 07:51:55;;;;;;;0.10;0.10;;;;;;;;;;5007155;28;20624;-69
2022/04/12 07:54:22;;;;;;;0.10;0.10;;;;;;;;;;5009629;28;20228;-68
2022/04/12 07:56:50;;;;;;;0.10;0.10;;;;;;;;;;4998766;28;20766;-69
2022/04/12 07:59:17;;;;;;;0.10;0.10;;;;;;;;;;5001096;28;20213;-68
2022/04/12 08:01:45;;;;;;;0.10;0.10;;;;;;;;;;5014351;28;20651;-68
2022/04/12 08:04:12;;;;;;;0.17;0.17;;;;;;;;;;5004596;28;20400;-69
2022/04/12 08:06:40;;;;;;;0.10;0.10;;;;;;;;;;5002906;28;20673;-70
2022/04/12 08:09:07;;;;;;;0.10;0.10;;;;;;;;;;5004877;28;20217;-68
2022/04/12 08:11:34;;;;;;;0.10;0.10;;;;;;;;;;5003726;28;20205;-70
2022/04/12 08:14:02;;;;;;;0.10;0.10;;;;;;;;;;5004755;28;20274;-71
2022/04/12 08:16:29;;;;;;;0.10;0.10;;;;;;;;;;5007462;28;20311;-69
2022/04/12 08:18:59;;;;;;;0.10;0.10;;;;;;;;;;5007600;28;20201;-69
2022/04/12 08:21:34;;;;;;;0.10;0.10;;;;;;;;;;5005748;28;20623;-69
2022/04/12 08:24:02;;;;;;;0.17;0.17;;;;;;;;;;5003225;28;20220;-69
2022/04/12 08:26:30;;;;;;;0.10;0.10;;;;;;;;;;5005252;28;20217;-68
2022/04/12 08:28:58;;;;;;;0.10;0.10;;;;;;;;;;5003818;28;20208;-69
2022/04/12 08:31:26;;;;;;;0.10;0.10;;;;;;;;;;5011223;28;20707;-69
2022/04/12 08:33:53;;;;;;;0.10;0.10;;;9.00;99.90;;;;;;5004022;28;20208;-69
2022/04/12 08:36:22;;;;;;;0.20;0.20;;;;;;;;;;5005617;28;20283;-69
2022/04/12 08:38:51;;;;;;;0.10;0.10;;;;;;;;;;5007807;28;20278;-69
2022/04/12 08:41:19;;;;;;;0.10;0.10;;;;;;;;;;5005664;28;20196;-69
2022/04/12 08:43:46;;;;;;;0.10;0.10;;;;;;;;;;5016968;28;20217;-69
2022/04/12 08:46:14;;;;;;;0.10;0.10;;;;;;;;;;5006600;28;20221;-70
2022/04/12 08:48:41;;;;;;;0.10;0.10;;;;;;;;;;5015095;28;20216;-70
2022/04/12 08:51:09;;;;;;;0.00;0.00;;;;;;;;;;5004427;28;20239;-69
2022/04/12 08:53:37;;;;;;;0.10;0.10;;;;;;;;;;5006339;28;20216;-69
2022/04/12 08:56:05;;;;;;;0.00;0.00;;;;;;;;;;4993776;28;20800;-69
2022/04/12 08:58:32;;;;;;;0.10;0.10;;;;;;;;;;5004996;28;20299;-69
2022/04/12 09:01:01;;;;;;;0.00;0.00;;;11.90;99.90;;;;;;5010599;28;20205;-70
2022/04/12 09:03:28;;;;;;;0.10;0.10;;;13.40;99.90;;;;;;5006204;28;20227;-69
2022/04/12 09:05:56;;;;;;;0.10;0.10;;;13.40;99.90;;;;;;5014389;28;20267;-69
2022/04/12 09:08:27;;;;;;;0.10;0.10;;;13.40;99.90;;;;;;5008663;28;20217;-69
2022/04/12 09:11:00;;;;;;;0.10;0.10;;;;;;;;;;5009456;28;20201;-71
2022/04/12 09:13:28;;;;;;;0.10;0.10;;;;;;;;;;5003220;28;20201;-69
2022/04/12 09:15:56;;;;;;;0.10;0.10;;;;;;;;;;5006228;28;20309;-69
2022/04/12 09:18:36;;;;;;;0.10;0.10;;;;;;;;;;5004481;28;20290;-69
2022/04/12 09:21:13;;;;;;;0.10;0.10;;;;;;;;;;5015075;28;20286;-69
2022/04/12 09:23:45;;;;;;;0.10;0.10;;;;;;;;;;5001504;28;20218;-69
2022/04/12 09:26:17;;;;;;;0.10;0.10;;;;;;;;;;5011057;28;20232;-69
2022/04/12 09:28:45;;;;;;;0.10;0.10;;;;;;;;;;4996871;28;20193;-69
2022/04/12 09:31:16;;;;;;;0.10;0.10;;;14.10;99.90;;;;;;5005700;28;20200;-71
2022/04/12 09:33:44;;;;;;;0.10;0.10;;;;;;;;;;5002383;28;20208;-69
2022/04/12 09:36:12;;;;;;;0.10;0.10;;;;;;;;;;5017161;28;20233;-72
2022/04/12 09:38:40;;;;;;;0.10;0.10;;;;;;;;;;5005958;28;20216;-70
2022/04/12 09:41:17;;;;;;;0.10;0.10;;;;;;;;;;5020563;28;20205;-68
2022/04/12 09:43:56;;;;;;;0.10;0.10;;;;;;;;;;5001169;28;20300;-70
2022/04/12 09:46:25;;;;;;;0.10;0.10;;;;;;;;;;5003033;28;20235;-69
2022/04/12 09:48:53;;;;;;;0.10;0.10;;;;;;;;;;5022596;28;20220;-69
2022/04/12 09:51:22;;;;;;;0.10;0.10;;;;;;;;;;5006231;28;20221;-68
2022/04/12 09:53:49;;;;;;;0.00;0.00;;;;;;;;;;5029431;28;20243;-71
2022/04/12 09:56:19;;;;;;;0.00;0.00;;;;;;;;;;5013097;28;20275;-69
2022/04/12 09:58:48;;;;;;;0.00;0.00;;;;;;;;;;5028194;28;20215;-69
2022/04/12 10:01:16;;;;;;;0.00;0.00;;;;;;;;;;5014056;28;20193;-69
2022/04/12 10:03:45;;;;;;;0.00;0.00;;;;;;;;;;5026679;28;20213;-69
2022/04/12 10:06:15;;;;;;;0.10;0.10;;;15.00;99.90;;;;;;5011457;28;20248;-69
2022/04/12 10:08:43;;;;;;;0.10;0.10;;;;;;;;;;5012635;28;20215;-71
2022/04/12 10:11:13;;;;;;;0.10;0.10;;;15.40;99.90;;;;;;5005013;28;20343;-69
2022/04/12 10:13:42;;;;;;;0.10;0.10;;;16.10;99.90;;;;;;5008804;28;20570;-68
2022/04/12 10:16:10;;;;;;;0.00;0.00;;;16.20;99.90;;;;;;5008320;28;20224;-69
2022/04/12 10:18:39;;;;;;;0.10;0.10;;;16.80;99.90;;;;;;5006215;28;20212;-69
2022/04/12 10:21:06;;;;;;;0.10;0.10;;;16.60;99.90;;;;;;5004016;28;20211;-71
2022/04/12 10:23:35;;;;;;;0.10;0.10;;;16.80;99.90;;;;;;5024383;28;20227;-69
2022/04/12 10:26:05;;;;;;;0.03;0.03;;;;;;;;;;5007628;28;20223;-69
2022/04/12 10:28:32;;;;;;;0.00;0.00;;;17.00;99.90;;;;;;5002709;28;20227;-69
2022/04/12 10:31:18;;;;;;;0.00;0.00;;;17.10;99.90;;;;;;5009775;28;20200;-70
2022/04/12 10:33:52;;;;;;;0.03;0.03;;;17.10;99.90;;;;;;4993373;28;20201;-70
2022/04/12 10:36:19;;;;;;;0.00;0.00;;;17.10;99.90;;;;;;5021464;28;20220;-66
2022/04/12 10:38:46;;;;;;;0.10;0.10;;;17.20;99.90;;;;;;5009866;28;20200;-66
2022/04/12 10:41:25;;;;;;;0.10;0.10;;;17.10;99.90;;;;;;5011723;28;20200;-68
2022/04/12 10:43:58;;;;;;;0.00;0.00;;;17.00;99.90;;;;;;5013788;28;20209;-66
2022/04/12 10:46:28;;;;;;;0.00;0.00;;;17.10;99.90;;;;;;5012039;28;20219;-67
2022/04/12 10:48:56;;;;;;;0.00;0.00;;;17.10;99.90;;;;;;5006612;28;20280;-67
2022/04/12 10:51:38;;;;;;;0.00;0.00;;;17.10;99.90;;;;;;5010605;28;20295;-68
2022/04/12 10:54:06;;;;;;;0.10;0.10;;;17.10;99.90;;;;;;5011680;28;20220;-67
2022/04/12 10:56:33;;;;;;;0.10;0.10;;;17.10;99.90;;;;;;5005205;28;20216;-66
2022/04/12 10:59:01;;;;;;;0.00;0.00;;;;;;;;;;5003742;28;20208;-67
2022/04/12 11:01:31;;;;;;;0.00;0.00;;;;;;;;;;5025995;28;20263;-67
2022/04/12 11:04:00;;;;;;;0.00;0.00;;;17.20;99.90;;;;;;5011715;28;20302;-67
2022/04/12 11:06:28;;;;;;;0.00;0.00;;;17.30;99.90;;;;;;5005222;28;20228;-67
2022/04/12 11:08:56;;;;;;;0.00;0.00;;;;;;;;;;5012188;28;20235;-66
2022/04/12 11:11:28;;;;;;;0.10;0.10;;;;;;;;;;5011414;28;20568;-67
2022/04/12 11:13:57;;;;;;;0.00;0.00;;;17.40;99.90;;;;;;5005111;28;20204;-66
2022/04/12 11:16:28;;;;;;;0.00;0.00;;;17.80;99.90;;;;;;5007844;28;20235;-69
2022/04/12 11:18:59;;;;;;;0.10;0.10;;;17.90;99.90;;;;;;5008792;28;20560;-67
2022/04/12 11:21:47;;;;;;;0.00;0.00;;;18.00;99.90;;;;;;5007624;28;20201;-67
2022/04/12 11:24:17;;;;;;;0.00;0.00;;;;;;;;;;5015392;28;20299;-66
2022/04/12 11:26:46;;;;;;;0.00;0.00;;;;;;;;;;5005073;28;20771;-66
2022/04/12 11:29:15;;;;;;;0.00;0.00;;;;;;;;;;5010781;28;20204;-70
2022/04/12 11:31:43;;;;;;;0.00;0.00;;;;;;;;;;5009726;28;20201;-67
2022/04/12 11:34:12;;;;;;;0.00;0.00;;;;;;;;;;5004594;28;20196;-67
2022/04/12 11:36:40;;;;;;;0.00;0.00;;;;;;;;;;5005274;28;20230;-67
2022/04/12 11:39:08;;;;;;;0.00;0.00;;;;;;;;;;5009352;28;20200;-67
2022/04/12 11:41:35;;;;;;;0.03;0.03;;;;;;;;;;5003137;28;20197;-66
2022/04/12 11:44:03;;;;;;;0.00;0.00;;;;;;;;;;5012081;28;20697;-67
2022/04/12 11:46:31;;;;;;;0.00;0.00;;;;;;;;;;5001177;28;20274;-66
2022/04/12 11:49:05;;;;;;;0.00;0.00;;;;;;;;;;4998728;28;20220;-66
2022/04/12 11:51:38;;;;;;;0.00;0.00;;;;;;;;;;5016263;28;20265;-67
2022/04/12 11:54:20;;;;;;;0.00;0.00;;;;;;;;;;5025590;28;20202;-66
2022/04/12 11:56:47;;;;;;;0.00;0.00;;;;;;;;;;5021470;28;20228;-67
2022/04/12 11:59:14;;;;;;;0.00;0.00;;;;;;;;;;5007686;28;20208;-66
2022/04/12 12:01:42;;;;;;;0.00;0.00;;;;;;;;;;5025727;28;20208;-66
2022/04/12 12:04:09;;;;;;;0.00;0.00;;;;;;;;;;5011863;28;20307;-67
2022/04/12 12:06:51;;;;;;;0.00;0.00;;;;;;;;;;5005219;28;20224;-68
2022/04/12 12:09:20;;;;;;;0.00;0.00;;;;;;;;;;5008660;28;20208;-66
2022/04/12 12:11:48;;;;;;;0.00;0.00;;;;;;;;;;5008622;28;20211;-67
2022/04/12 12:14:15;;;;;;;0.00;0.00;;;;;;;;;;5014609;28;20200;-67
2022/04/12 12:16:43;;;;;;;0.00;0.00;;;;;;;;;;5004642;28;20267;-66
2022/04/12 12:19:14;;;;;;;0.00;0.00;;;;;;;;;;5006756;28;20208;-67
2022/04/12 12:21:45;;;;;;;0.10;0.10;;;;;;;;;;5004921;28;20214;-67
2022/04/12 12:24:12;;;;;;;0.00;0.00;;;;;;;;;;5009197;28;20232;-67
2022/04/12 12:26:41;;;;;;;0.00;0.00;;;;;;;;;;5011294;28;20217;-66
2022/04/12 12:29:10;;;;;;;0.00;0.00;;;;;;;;;;5016238;28;20208;-67
2022/04/12 12:31:44;;;;;;;0.00;0.00;;;;;;;;;;5010113;28;20201;-67
2022/04/12 12:34:26;;;;;;;0.00;0.00;;;;;;;;;;5016938;28;20236;-68
2022/04/12 12:36:54;;;;;;;0.00;0.00;;;;;;;;;;5010651;28;20273;-67
2022/04/12 12:39:21;;;;;;;0.00;0.00;;;;;;;;;;5015679;28;20757;-67
2022/04/12 12:41:56;;;;;;;0.00;0.00;;;18.00;99.90;;;;;;5016421;28;20231;-67
2022/04/12 12:44:24;;;;;;;0.00;0.00;;;18.60;99.90;;;;;;5011871;28;20280;-67
2022/04/12 12:46:56;;;;;;;0.00;0.00;;;18.60;99.90;;;;;;5011595;28;20243;-68
2022/04/12 12:49:23;;;;;;;0.00;0.00;;;18.40;99.90;;;;;;5008935;28;20433;-67
2022/04/12 12:51:51;;;;;;;0.00;0.00;;;18.50;99.90;;;;;;5014748;28;20235;-67
2022/04/12 12:54:19;;;;;;;0.00;0.00;;;18.70;99.90;;;;;;5014226;28;20204;-68
2022/04/12 12:56:49;;;;;;;0.00;0.00;;;18.90;99.90;;;;;;5012607;28;20674;-68
2022/04/12 12:59:20;;;;;;;0.00;0.00;;;18.90;99.90;;;;;;5010716;28;20400;-68
2022/04/12 13:01:49;;;;;;;0.00;0.00;;;19.00;99.90;;;;;;5004822;28;20205;-68
2022/04/12 13:04:23;;;;;;;0.00;0.00;;;18.90;99.90;;;;;;5009392;28;20717;-67
2022/04/12 13:07:04;;;;;;;0.00;0.00;;;19.10;99.90;;;;;;5007148;28;20825;-68
2022/04/12 13:09:32;;;;;;;0.00;0.00;;;19.10;99.90;;;;;;5016785;28;20193;-68
2022/04/12 13:12:01;;;;;;;0.00;0.00;;;19.00;99.90;;;;;;5008747;28;20204;-68
2022/04/12 13:14:28;;;;;;;0.00;0.00;;;19.00;99.90;;;;;;5016874;28;20216;-68
2022/04/12 13:16:56;;;;;;;0.00;0.00;;;19.00;99.90;;;;;;5005732;28;20220;-68
2022/04/12 13:19:28;;;;;;;0.00;0.00;;;18.80;99.90;;;;;;5013321;28;20204;-67
2022/04/12 13:21:56;;;;;;;0.00;0.00;;;18.80;99.90;;;;;;5007004;28;20255;-68
2022/04/12 13:24:23;;;;;;;0.00;0.00;;;18.60;99.90;;;;;;5003623;28;20221;-67
2022/04/12 13:26:50;;;;;;;0.00;0.00;;;18.60;99.90;;;;;;5011294;28;20227;-68
2022/04/12 13:29:19;;;;;;;0.00;0.00;;;18.60;99.90;;;;;;5004261;28;20208;-68
2022/04/12 13:31:46;;;;;;;0.00;0.00;;;18.60;99.90;;;;;;5006070;28;20225;-68
2022/04/12 13:34:13;;;;;;;0.00;0.00;;;18.50;99.90;;;;;;5006010;28;20303;-68
2022/04/12 13:36:40;;;;;;;0.00;0.00;;;18.50;99.90;;;;;;5008471;28;20290;-67
2022/04/12 13:39:09;;;;;;;0.00;0.00;;;18.40;99.90;;;;;;5004499;28;20311;-68
2022/04/12 13:41:37;;;;;;;0.00;0.00;;;18.40;99.90;;;;;;5008274;28;20200;-68
2022/04/12 13:44:05;;;;;;;0.00;0.00;;;18.30;99.90;;;;;;5004283;28;20197;-67
2022/04/12 13:46:33;;;;;;;0.00;0.00;;;18.10;99.90;;;;;;5008254;28;20232;-68
2022/04/12 13:49:00;;;;;;;0.00;0.00;;;18.10;99.90;;;;;;5012314;28;20211;-68
2022/04/12 13:51:28;;;;;;;0.00;0.00;;;18.10;99.90;;;;;;5009809;28;20288;-68
2022/04/12 13:53:55;;;;;;;0.00;0.00;;;18.10;99.90;;;;;;5005918;28;20240;-66
2022/04/12 13:56:22;;;;;;;0.00;0.00;;;18.20;99.90;;;;;;5012352;28;20299;-68
2022/04/12 13:58:49;;;;;;;0.00;0.00;;;18.20;99.90;;;;;;5005704;28;20220;-68
2022/04/12 14:01:16;;;;;;;0.00;0.00;;;18.20;99.90;;;;;;5004807;28;20201;-68
2022/04/12 14:03:45;;;;;;;0.00;0.00;;;18.20;99.90;;;;;;5001537;28;20297;-67
2022/04/12 14:06:12;;;;;;;0.00;0.00;;;18.20;99.90;;;;;;5001044;28;20299;-66
2022/04/12 14:08:39;;;;;;;0.00;0.00;;;18.20;99.90;;;;;;5010718;28;20288;-66
2022/04/12 14:11:07;;;;;;;0.00;0.00;;;18.10;99.90;;;;;;5004470;28;20243;-68